< < Back
Terminal Aerodrome Forecast


Current Version              Previous Versions:   1  2  3  4  5  6  7  8  9  

Terminal Aerodrome Forecast

217
FTUS42 KTAE 261734
TAFABY
TAF
KABY 261734Z 2618/2718 VRB04KT P6SM SCT040
     FM262100 14006KT 6SM TSRA BKN040CB
     FM270200 12003KT P6SM SCT040 BKN250=

Latest METAR

135
SAUS70 KWBC 270000
MTRABY
METAR KABY 262353Z 05003KT 10SM CLR 23/22 A3015 RMK AO2 RAB02E12 SLP207
P0000 60084 T02330217 10289 20228 53006 $


USA.gov is the U.S. government's official web portal to all federal, state and local government web resources and services.